sensor_id;sensor_type;location;lat;lon;timestamp;P1;durP1;ratioP1;P2;durP2;ratioP2
76035;SDS011;64732;56.314;44.068;2024-03-23T00:54:02;10.02;;;3.55;;
76035;SDS011;64732;56.314;44.068;2024-03-23T00:56:22;6.57;;;2.95;;
76035;SDS011;64732;56.314;44.068;2024-03-23T00:58:43;8.88;;;3.28;;
76035;SDS011;64732;56.314;44.068;2024-03-23T01:01:03;8.10;;;3.00;;
76035;SDS011;64732;56.314;44.068;2024-03-23T01:03:24;9.73;;;3.90;;
76035;SDS011;64732;56.314;44.068;2024-03-23T01:05:45;7.45;;;3.00;;
76035;SDS011;64732;56.314;44.068;2024-03-23T01:08:06;7.55;;;3.30;;
76035;SDS011;64732;56.314;44.068;2024-03-23T01:10:29;14.05;;;3.72;;
76035;SDS011;64732;56.314;44.068;2024-03-23T01:12:50;10.65;;;3.63;;
76035;SDS011;64732;56.314;44.068;2024-03-23T01:15:10;9.02;;;3.17;;
76035;SDS011;64732;56.314;44.068;2024-03-23T01:17:31;6.82;;;3.35;;
76035;SDS011;64732;56.314;44.068;2024-03-23T01:19:52;7.00;;;3.33;;
76035;SDS011;64732;56.314;44.068;2024-03-23T01:22:12;11.55;;;3.55;;
76035;SDS011;64732;56.314;44.068;2024-03-23T01:24:33;6.45;;;3.33;;
76035;SDS011;64732;56.314;44.068;2024-03-23T01:26:56;9.93;;;3.13;;
76035;SDS011;64732;56.314;44.068;2024-03-23T01:29:17;6.82;;;3.53;;
76035;SDS011;64732;56.314;44.068;2024-03-23T01:31:37;10.95;;;3.53;;
76035;SDS011;64732;56.314;44.068;2024-03-23T01:33:58;7.28;;;3.03;;
76035;SDS011;64732;56.314;44.068;2024-03-23T01:36:19;11.02;;;3.17;;
76035;SDS011;64732;56.314;44.068;2024-03-23T01:38:39;8.50;;;3.65;;
76035;SDS011;64732;56.314;44.068;2024-03-23T01:41:01;9.07;;;3.67;;
76035;SDS011;64732;56.314;44.068;2024-03-23T01:43:25;10.82;;;4.25;;
76035;SDS011;64732;56.314;44.068;2024-03-23T01:45:45;10.13;;;4.18;;
76035;SDS011;64732;56.314;44.068;2024-03-23T01:48:06;10.50;;;4.80;;
76035;SDS011;64732;56.314;44.068;2024-03-23T01:50:27;7.40;;;3.17;;
76035;SDS011;64732;56.314;44.068;2024-03-23T01:52:48;12.85;;;5.20;;
76035;SDS011;64732;56.314;44.068;2024-03-23T01:55:09;23.48;;;4.72;;
76035;SDS011;64732;56.314;44.068;2024-03-23T01:57:29;12.68;;;4.93;;
76035;SDS011;64732;56.314;44.068;2024-03-23T01:59:53;12.98;;;5.57;;
76035;SDS011;64732;56.314;44.068;2024-03-23T02:02:13;13.23;;;5.43;;
76035;SDS011;64732;56.314;44.068;2024-03-23T02:04:34;12.43;;;4.95;;
76035;SDS011;64732;56.314;44.068;2024-03-23T02:06:55;17.67;;;5.40;;
76035;SDS011;64732;56.314;44.068;2024-03-23T02:09:15;12.75;;;4.43;;
76035;SDS011;64732;56.314;44.068;2024-03-23T02:11:36;8.43;;;4.07;;
76035;SDS011;64732;56.314;44.068;2024-03-23T02:13:56;12.27;;;5.32;;
76035;SDS011;64732;56.314;44.068;2024-03-23T02:16:20;10.20;;;5.05;;
76035;SDS011;64732;56.314;44.068;2024-03-23T02:18:41;14.15;;;5.53;;
76035;SDS011;64732;56.314;44.068;2024-03-23T02:21:01;12.18;;;4.07;;
76035;SDS011;64732;56.314;44.068;2024-03-23T02:23:25;12.82;;;5.60;;
76035;SDS011;64732;56.314;44.068;2024-03-23T02:25:45;14.50;;;6.20;;
76035;SDS011;64732;56.314;44.068;2024-03-23T02:28:06;10.50;;;4.53;;
76035;SDS011;64732;56.314;44.068;2024-03-23T02:30:27;16.10;;;5.07;;
76035;SDS011;64732;56.314;44.068;2024-03-23T02:32:47;13.93;;;6.43;;
76035;SDS011;64732;56.314;44.068;2024-03-23T02:35:08;16.30;;;6.15;;
76035;SDS011;64732;56.314;44.068;2024-03-23T02:37:29;16.50;;;5.95;;
76035;SDS011;64732;56.314;44.068;2024-03-23T02:39:53;16.65;;;7.13;;
76035;SDS011;64732;56.314;44.068;2024-03-23T02:42:13;16.38;;;6.45;;
76035;SDS011;64732;56.314;44.068;2024-03-23T02:44:34;13.82;;;6.63;;
76035;SDS011;64732;56.314;44.068;2024-03-23T02:46:55;14.05;;;6.07;;
76035;SDS011;64732;56.314;44.068;2024-03-23T02:49:15;11.80;;;5.75;;
76035;SDS011;64732;56.314;44.068;2024-03-23T02:51:36;12.82;;;5.57;;
76035;SDS011;64732;56.314;44.068;2024-03-23T02:53:57;11.13;;;5.35;;
76035;SDS011;64732;56.314;44.068;2024-03-23T02:56:20;12.05;;;4.55;;
76035;SDS011;64732;56.314;44.068;2024-03-23T02:58:41;14.73;;;5.70;;
76035;SDS011;64732;56.314;44.068;2024-03-23T03:01:01;13.60;;;6.00;;
76035;SDS011;64732;56.314;44.068;2024-03-23T03:03:22;14.38;;;5.80;;
76035;SDS011;64732;56.314;44.068;2024-03-23T03:05:43;15.40;;;6.03;;
76035;SDS011;64732;56.314;44.068;2024-03-23T03:08:03;18.65;;;7.32;;
76035;SDS011;64732;56.314;44.068;2024-03-23T03:10:24;12.32;;;4.47;;
76035;SDS011;64732;56.314;44.068;2024-03-23T03:12:47;11.32;;;5.53;;
76035;SDS011;64732;56.314;44.068;2024-03-23T03:15:08;14.13;;;5.90;;
76035;SDS011;64732;56.314;44.068;2024-03-23T03:17:29;12.13;;;5.85;;
76035;SDS011;64732;56.314;44.068;2024-03-23T03:19:49;19.23;;;6.90;;
76035;SDS011;64732;56.314;44.068;2024-03-23T03:22:10;12.07;;;5.50;;
76035;SDS011;64732;56.314;44.068;2024-03-23T03:24:30;14.68;;;5.57;;
76035;SDS011;64732;56.314;44.068;2024-03-23T03:26:51;16.80;;;6.75;;
76035;SDS011;64732;56.314;44.068;2024-03-23T03:29:14;12.63;;;5.03;;
76035;SDS011;64732;56.314;44.068;2024-03-23T03:31:35;12.80;;;6.00;;
76035;SDS011;64732;56.314;44.068;2024-03-23T03:33:56;16.23;;;5.22;;
76035;SDS011;64732;56.314;44.068;2024-03-23T03:36:17;13.25;;;5.63;;
76035;SDS011;64732;56.314;44.068;2024-03-23T03:38:37;11.93;;;5.38;;
76035;SDS011;64732;56.314;44.068;2024-03-23T03:40:58;15.38;;;6.40;;
76035;SDS011;64732;56.314;44.068;2024-03-23T03:43:19;21.85;;;6.80;;
76035;SDS011;64732;56.314;44.068;2024-03-23T03:45:42;14.65;;;6.85;;
76035;SDS011;64732;56.314;44.068;2024-03-23T03:48:03;16.88;;;6.78;;
76035;SDS011;64732;56.314;44.068;2024-03-23T03:50:23;17.17;;;6.72;;
76035;SDS011;64732;56.314;44.068;2024-03-23T03:52:44;16.20;;;7.13;;
76035;SDS011;64732;56.314;44.068;2024-03-23T03:55:06;16.67;;;7.18;;
76035;SDS011;64732;56.314;44.068;2024-03-23T03:57:31;17.27;;;7.72;;
76035;SDS011;64732;56.314;44.068;2024-03-23T03:59:52;19.20;;;8.15;;
76035;SDS011;64732;56.314;44.068;2024-03-23T04:02:15;22.10;;;8.05;;
76035;SDS011;64732;56.314;44.068;2024-03-23T04:04:36;15.27;;;6.55;;
76035;SDS011;64732;56.314;44.068;2024-03-23T04:06:59;14.68;;;6.68;;
76035;SDS011;64732;56.314;44.068;2024-03-23T04:09:20;21.55;;;7.85;;
76035;SDS011;64732;56.314;44.068;2024-03-23T04:11:41;14.82;;;6.05;;
76035;SDS011;64732;56.314;44.068;2024-03-23T04:14:01;17.13;;;8.13;;
76035;SDS011;64732;56.314;44.068;2024-03-23T04:16:26;20.40;;;7.35;;
76035;SDS011;64732;56.314;44.068;2024-03-23T04:18:49;17.23;;;7.60;;
76035;SDS011;64732;56.314;44.068;2024-03-23T04:21:10;16.60;;;7.93;;
76035;SDS011;64732;56.314;44.068;2024-03-23T04:23:31;13.75;;;6.85;;
76035;SDS011;64732;56.314;44.068;2024-03-23T04:25:51;21.40;;;8.20;;
76035;SDS011;64732;56.314;44.068;2024-03-23T04:28:12;17.92;;;7.68;;
76035;SDS011;64732;56.314;44.068;2024-03-23T04:30:33;16.80;;;7.13;;
76035;SDS011;64732;56.314;44.068;2024-03-23T04:32:53;15.52;;;6.40;;
76035;SDS011;64732;56.314;44.068;2024-03-23T04:35:16;15.77;;;7.13;;
76035;SDS011;64732;56.314;44.068;2024-03-23T04:37:37;13.60;;;6.78;;
76035;SDS011;64732;56.314;44.068;2024-03-23T04:39:58;12.07;;;5.90;;
76035;SDS011;64732;56.314;44.068;2024-03-23T04:42:18;19.25;;;6.63;;
76035;SDS011;64732;56.314;44.068;2024-03-23T04:44:39;16.13;;;6.95;;
76035;SDS011;64732;56.314;44.068;2024-03-23T04:47:00;16.95;;;7.40;;
76035;SDS011;64732;56.314;44.068;2024-03-23T04:49:20;19.05;;;7.85;;
76035;SDS011;64732;56.314;44.068;2024-03-23T04:51:44;19.75;;;7.47;;
76035;SDS011;64732;56.314;44.068;2024-03-23T04:54:04;19.83;;;8.50;;
76035;SDS011;64732;56.314;44.068;2024-03-23T04:56:25;16.33;;;6.65;;
76035;SDS011;64732;56.314;44.068;2024-03-23T04:58:46;20.15;;;7.55;;
76035;SDS011;64732;56.314;44.068;2024-03-23T05:01:07;20.23;;;8.52;;
76035;SDS011;64732;56.314;44.068;2024-03-23T05:03:27;14.82;;;6.75;;
76035;SDS011;64732;56.314;44.068;2024-03-23T05:05:48;18.88;;;7.63;;
76035;SDS011;64732;56.314;44.068;2024-03-23T05:08:11;16.77;;;6.45;;
76035;SDS011;64732;56.314;44.068;2024-03-23T05:10:32;39.38;;;9.82;;
76035;SDS011;64732;56.314;44.068;2024-03-23T05:12:52;21.98;;;9.07;;
76035;SDS011;64732;56.314;44.068;2024-03-23T05:15:13;16.98;;;6.97;;
76035;SDS011;64732;56.314;44.068;2024-03-23T05:17:33;15.52;;;7.57;;
76035;SDS011;64732;56.314;44.068;2024-03-23T05:19:54;19.88;;;8.02;;
76035;SDS011;64732;56.314;44.068;2024-03-23T05:22:15;20.80;;;8.98;;
76035;SDS011;64732;56.314;44.068;2024-03-23T05:24:38;17.85;;;8.65;;
76035;SDS011;64732;56.314;44.068;2024-03-23T05:26:58;18.52;;;8.85;;
76035;SDS011;64732;56.314;44.068;2024-03-23T05:29:19;24.50;;;8.80;;
76035;SDS011;64732;56.314;44.068;2024-03-23T05:31:42;18.20;;;8.65;;
76035;SDS011;64732;56.314;44.068;2024-03-23T05:34:03;14.30;;;7.15;;
76035;SDS011;64732;56.314;44.068;2024-03-23T05:36:24;19.17;;;7.88;;
76035;SDS011;64732;56.314;44.068;2024-03-23T05:38:44;19.52;;;8.90;;
76035;SDS011;64732;56.314;44.068;2024-03-23T05:41:08;22.20;;;8.07;;
76035;SDS011;64732;56.314;44.068;2024-03-23T05:43:29;19.08;;;8.50;;
76035;SDS011;64732;56.314;44.068;2024-03-23T05:45:53;15.20;;;7.47;;
76035;SDS011;64732;56.314;44.068;2024-03-23T05:48:14;20.08;;;8.50;;
76035;SDS011;64732;56.314;44.068;2024-03-23T05:50:34;18.60;;;9.10;;
76035;SDS011;64732;56.314;44.068;2024-03-23T05:52:55;19.55;;;8.63;;
76035;SDS011;64732;56.314;44.068;2024-03-23T05:55:15;18.75;;;9.30;;
76035;SDS011;64732;56.314;44.068;2024-03-23T05:57:39;22.95;;;8.93;;
76035;SDS011;64732;56.314;44.068;2024-03-23T05:59:59;23.80;;;9.77;;
76035;SDS011;64732;56.314;44.068;2024-03-23T06:02:20;18.88;;;8.50;;
76035;SDS011;64732;56.314;44.068;2024-03-23T06:04:40;19.17;;;7.95;;
76035;SDS011;64732;56.314;44.068;2024-03-23T06:07:01;16.75;;;8.23;;
76035;SDS011;64732;56.314;44.068;2024-03-23T06:09:22;18.67;;;8.05;;
76035;SDS011;64732;56.314;44.068;2024-03-23T06:11:42;18.73;;;8.57;;
76035;SDS011;64732;56.314;44.068;2024-03-23T06:14:06;18.63;;;8.02;;
76035;SDS011;64732;56.314;44.068;2024-03-23T06:16:26;20.05;;;8.25;;
76035;SDS011;64732;56.314;44.068;2024-03-23T06:18:47;20.60;;;9.00;;
76035;SDS011;64732;56.314;44.068;2024-03-23T06:21:12;20.42;;;8.25;;
76035;SDS011;64732;56.314;44.068;2024-03-23T06:23:33;20.35;;;8.95;;
76035;SDS011;64732;56.314;44.068;2024-03-23T06:25:54;26.30;;;10.55;;
76035;SDS011;64732;56.314;44.068;2024-03-23T06:28:14;26.08;;;8.77;;
76035;SDS011;64732;56.314;44.068;2024-03-23T06:30:38;19.30;;;8.43;;
76035;SDS011;64732;56.314;44.068;2024-03-23T06:32:58;18.25;;;8.07;;
76035;SDS011;64732;56.314;44.068;2024-03-23T06:35:19;26.52;;;9.10;;
76035;SDS011;64732;56.314;44.068;2024-03-23T06:37:42;18.60;;;9.05;;
76035;SDS011;64732;56.314;44.068;2024-03-23T06:40:03;20.63;;;9.30;;
76035;SDS011;64732;56.314;44.068;2024-03-23T06:42:24;18.85;;;8.95;;
76035;SDS011;64732;56.314;44.068;2024-03-23T06:44:45;19.20;;;8.20;;
76035;SDS011;64732;56.314;44.068;2024-03-23T06:47:08;17.08;;;8.18;;
76035;SDS011;64732;56.314;44.068;2024-03-23T06:49:28;23.98;;;10.18;;
76035;SDS011;64732;56.314;44.068;2024-03-23T06:51:49;21.63;;;9.40;;
76035;SDS011;64732;56.314;44.068;2024-03-23T06:54:10;19.98;;;10.27;;
76035;SDS011;64732;56.314;44.068;2024-03-23T06:56:31;19.50;;;7.53;;
76035;SDS011;64732;56.314;44.068;2024-03-23T06:58:51;18.25;;;9.00;;
76035;SDS011;64732;56.314;44.068;2024-03-23T07:01:12;20.80;;;9.23;;
76035;SDS011;64732;56.314;44.068;2024-03-23T07:03:36;22.77;;;8.50;;
76035;SDS011;64732;56.314;44.068;2024-03-23T07:05:57;21.83;;;9.65;;
76035;SDS011;64732;56.314;44.068;2024-03-23T07:08:18;18.27;;;8.10;;
76035;SDS011;64732;56.314;44.068;2024-03-23T07:10:40;18.77;;;7.90;;
76035;SDS011;64732;56.314;44.068;2024-03-23T07:13:01;22.40;;;9.70;;
76035;SDS011;64732;56.314;44.068;2024-03-23T07:15:22;18.27;;;8.80;;
76035;SDS011;64732;56.314;44.068;2024-03-23T07:17:42;20.02;;;9.25;;
76035;SDS011;64732;56.314;44.068;2024-03-23T07:20:09;14.68;;;7.38;;
76035;SDS011;64732;56.314;44.068;2024-03-23T07:22:30;21.83;;;8.60;;
76035;SDS011;64732;56.314;44.068;2024-03-23T07:24:51;19.77;;;7.70;;
76035;SDS011;64732;56.314;44.068;2024-03-23T07:27:12;17.92;;;8.93;;
76035;SDS011;64732;56.314;44.068;2024-03-23T07:29:33;16.23;;;8.13;;
76035;SDS011;64732;56.314;44.068;2024-03-23T07:31:53;17.67;;;7.65;;
76035;SDS011;64732;56.314;44.068;2024-03-23T07:34:14;13.57;;;7.25;;
76035;SDS011;64732;56.314;44.068;2024-03-23T07:36:37;17.40;;;7.88;;
76035;SDS011;64732;56.314;44.068;2024-03-23T07:38:58;21.63;;;9.20;;
76035;SDS011;64732;56.314;44.068;2024-03-23T07:41:19;16.63;;;7.72;;
76035;SDS011;64732;56.314;44.068;2024-03-23T07:43:40;18.27;;;7.20;;
76035;SDS011;64732;56.314;44.068;2024-03-23T07:46:01;19.48;;;8.88;;
76035;SDS011;64732;56.314;44.068;2024-03-23T07:48:22;18.33;;;8.40;;
76035;SDS011;64732;56.314;44.068;2024-03-23T07:50:42;20.25;;;8.32;;
76035;SDS011;64732;56.314;44.068;2024-03-23T07:53:06;21.50;;;9.32;;
76035;SDS011;64732;56.314;44.068;2024-03-23T07:55:26;18.30;;;8.75;;
76035;SDS011;64732;56.314;44.068;2024-03-23T07:57:47;16.63;;;8.13;;
76035;SDS011;64732;56.314;44.068;2024-03-23T08:00:08;15.35;;;7.72;;
76035;SDS011;64732;56.314;44.068;2024-03-23T08:02:29;16.73;;;7.75;;
76035;SDS011;64732;56.314;44.068;2024-03-23T08:04:49;17.42;;;8.05;;
76035;SDS011;64732;56.314;44.068;2024-03-23T08:07:10;16.23;;;7.15;;
76035;SDS011;64732;56.314;44.068;2024-03-23T08:09:33;17.63;;;7.57;;
76035;SDS011;64732;56.314;44.068;2024-03-23T08:11:54;21.38;;;10.02;;
76035;SDS011;64732;56.314;44.068;2024-03-23T08:14:15;20.90;;;8.30;;
76035;SDS011;64732;56.314;44.068;2024-03-23T08:16:35;17.63;;;8.00;;
76035;SDS011;64732;56.314;44.068;2024-03-23T08:18:56;17.02;;;8.13;;
76035;SDS011;64732;56.314;44.068;2024-03-23T08:21:17;19.73;;;9.02;;
76035;SDS011;64732;56.314;44.068;2024-03-23T08:23:38;16.45;;;7.30;;
76035;SDS011;64732;56.314;44.068;2024-03-23T08:26:02;17.60;;;8.10;;
76035;SDS011;64732;56.314;44.068;2024-03-23T08:28:23;18.27;;;8.25;;
76035;SDS011;64732;56.314;44.068;2024-03-23T08:30:44;15.32;;;7.93;;
76035;SDS011;64732;56.314;44.068;2024-03-23T08:33:05;17.23;;;7.50;;
76035;SDS011;64732;56.314;44.068;2024-03-23T08:35:25;16.63;;;7.72;;
76035;SDS011;64732;56.314;44.068;2024-03-23T08:37:46;14.82;;;7.60;;
76035;SDS011;64732;56.314;44.068;2024-03-23T08:40:07;19.05;;;7.72;;
76035;SDS011;64732;56.314;44.068;2024-03-23T08:42:30;16.73;;;8.50;;
76035;SDS011;64732;56.314;44.068;2024-03-23T08:44:51;14.48;;;5.95;;
76035;SDS011;64732;56.314;44.068;2024-03-23T08:47:12;15.82;;;6.97;;
76035;SDS011;64732;56.314;44.068;2024-03-23T08:49:32;22.80;;;9.07;;
76035;SDS011;64732;56.314;44.068;2024-03-23T08:51:53;14.43;;;7.13;;
76035;SDS011;64732;56.314;44.068;2024-03-23T08:54:14;12.82;;;7.25;;
76035;SDS011;64732;56.314;44.068;2024-03-23T08:56:34;18.08;;;8.00;;
76035;SDS011;64732;56.314;44.068;2024-03-23T08:58:58;12.52;;;6.35;;
76035;SDS011;64732;56.314;44.068;2024-03-23T09:01:18;14.98;;;7.38;;
76035;SDS011;64732;56.314;44.068;2024-03-23T09:03:39;14.23;;;7.50;;
76035;SDS011;64732;56.314;44.068;2024-03-23T09:06:01;15.93;;;7.18;;
76035;SDS011;64732;56.314;44.068;2024-03-23T09:08:21;14.18;;;7.25;;
76035;SDS011;64732;56.314;44.068;2024-03-23T09:10:42;17.23;;;6.80;;
76035;SDS011;64732;56.314;44.068;2024-03-23T09:13:03;14.82;;;6.78;;
76035;SDS011;64732;56.314;44.068;2024-03-23T09:15:26;13.90;;;7.57;;
76035;SDS011;64732;56.314;44.068;2024-03-23T09:17:47;12.90;;;7.10;;
76035;SDS011;64732;56.314;44.068;2024-03-23T09:20:08;12.20;;;6.35;;
76035;SDS011;64732;56.314;44.068;2024-03-23T09:22:29;14.00;;;7.15;;
76035;SDS011;64732;56.314;44.068;2024-03-23T09:24:50;18.10;;;8.35;;
76035;SDS011;64732;56.314;44.068;2024-03-23T09:27:11;11.73;;;6.25;;
76035;SDS011;64732;56.314;44.068;2024-03-23T09:29:31;14.48;;;6.53;;
76035;SDS011;64732;56.314;44.068;2024-03-23T09:31:55;14.65;;;6.75;;
76035;SDS011;64732;56.314;44.068;2024-03-23T09:34:16;15.73;;;6.88;;
76035;SDS011;64732;56.314;44.068;2024-03-23T09:36:37;17.35;;;7.20;;
76035;SDS011;64732;56.314;44.068;2024-03-23T09:38:57;13.98;;;6.65;;
76035;SDS011;64732;56.314;44.068;2024-03-23T09:41:18;16.40;;;6.65;;
76035;SDS011;64732;56.314;44.068;2024-03-23T09:43:39;22.55;;;7.40;;
76035;SDS011;64732;56.314;44.068;2024-03-23T09:46:00;13.63;;;5.95;;
76035;SDS011;64732;56.314;44.068;2024-03-23T09:48:24;16.95;;;6.88;;
76035;SDS011;64732;56.314;44.068;2024-03-23T09:50:45;14.52;;;6.95;;
76035;SDS011;64732;56.314;44.068;2024-03-23T09:53:06;10.80;;;6.07;;
76035;SDS011;64732;56.314;44.068;2024-03-23T09:55:27;14.45;;;6.32;;
76035;SDS011;64732;56.314;44.068;2024-03-23T09:57:47;15.15;;;7.75;;
76035;SDS011;64732;56.314;44.068;2024-03-23T10:00:09;19.00;;;7.53;;
76035;SDS011;64732;56.314;44.068;2024-03-23T10:02:29;12.63;;;6.20;;
76035;SDS011;64732;56.314;44.068;2024-03-23T10:04:55;17.63;;;7.00;;
76035;SDS011;64732;56.314;44.068;2024-03-23T10:07:18;11.95;;;6.25;;
76035;SDS011;64732;56.314;44.068;2024-03-23T10:09:39;13.60;;;6.53;;
76035;SDS011;64732;56.314;44.068;2024-03-23T10:12:07;19.10;;;7.30;;
76035;SDS011;64732;56.314;44.068;2024-03-23T10:14:28;15.40;;;6.50;;
76035;SDS011;64732;56.314;44.068;2024-03-23T10:16:49;14.20;;;7.10;;
76035;SDS011;64732;56.314;44.068;2024-03-23T10:19:10;15.80;;;6.35;;
76035;SDS011;64732;56.314;44.068;2024-03-23T10:21:33;14.15;;;6.82;;
76035;SDS011;64732;56.314;44.068;2024-03-23T10:23:54;13.60;;;6.38;;
76035;SDS011;64732;56.314;44.068;2024-03-23T10:26:16;15.30;;;6.93;;
76035;SDS011;64732;56.314;44.068;2024-03-23T10:28:37;14.73;;;6.45;;
76035;SDS011;64732;56.314;44.068;2024-03-23T10:30:58;15.23;;;6.25;;
76035;SDS011;64732;56.314;44.068;2024-03-23T10:33:19;16.13;;;7.78;;
76035;SDS011;64732;56.314;44.068;2024-03-23T10:35:40;16.15;;;6.95;;
76035;SDS011;64732;56.314;44.068;2024-03-23T10:38:03;16.85;;;6.53;;
76035;SDS011;64732;56.314;44.068;2024-03-23T10:40:24;16.80;;;6.93;;
76035;SDS011;64732;56.314;44.068;2024-03-23T10:42:46;14.63;;;7.20;;
76035;SDS011;64732;56.314;44.068;2024-03-23T10:45:07;15.80;;;6.53;;
76035;SDS011;64732;56.314;44.068;2024-03-23T10:47:28;17.75;;;7.25;;
76035;SDS011;64732;56.314;44.068;2024-03-23T10:49:49;12.77;;;6.60;;
76035;SDS011;64732;56.314;44.068;2024-03-23T10:52:10;18.95;;;7.10;;
76035;SDS011;64732;56.314;44.068;2024-03-23T10:54:33;16.58;;;8.27;;
76035;SDS011;64732;56.314;44.068;2024-03-23T10:56:56;13.85;;;5.57;;
76035;SDS011;64732;56.314;44.068;2024-03-23T10:59:18;15.15;;;7.30;;
76035;SDS011;64732;56.314;44.068;2024-03-23T11:01:47;15.75;;;7.25;;
76035;SDS011;64732;56.314;44.068;2024-03-23T11:04:18;17.00;;;7.13;;
76035;SDS011;64732;56.314;44.068;2024-03-23T11:06:49;13.13;;;6.63;;
76035;SDS011;64732;56.314;44.068;2024-03-23T11:11:48;19.52;;;7.43;;
76035;SDS011;64732;56.314;44.068;2024-03-23T11:14:12;14.32;;;6.78;;
76035;SDS011;64732;56.314;44.068;2024-03-23T11:16:42;13.77;;;7.13;;
76035;SDS011;64732;56.314;44.068;2024-03-23T11:24:13;15.98;;;7.40;;
76035;SDS011;64732;56.314;44.068;2024-03-23T11:26:35;12.23;;;5.95;;
76035;SDS011;64732;56.314;44.068;2024-03-23T11:29:11;15.15;;;7.55;;
76035;SDS011;64732;56.314;44.068;2024-03-23T11:31:32;17.05;;;6.10;;
76035;SDS011;64732;56.314;44.068;2024-03-23T11:34:02;14.93;;;7.43;;
76035;SDS011;64732;56.314;44.068;2024-03-23T11:36:23;14.60;;;6.90;;
76035;SDS011;64732;56.314;44.068;2024-03-23T11:38:43;15.70;;;7.78;;
76035;SDS011;64732;56.314;44.068;2024-03-23T11:41:04;21.52;;;8.52;;
76035;SDS011;64732;56.314;44.068;2024-03-23T11:43:24;13.27;;;6.70;;
76035;SDS011;64732;56.314;44.068;2024-03-23T11:45:48;17.08;;;7.57;;
76035;SDS011;64732;56.314;44.068;2024-03-23T11:48:10;16.80;;;7.93;;
76035;SDS011;64732;56.314;44.068;2024-03-23T11:50:31;15.65;;;7.20;;
76035;SDS011;64732;56.314;44.068;2024-03-23T11:52:51;14.85;;;7.25;;
76035;SDS011;64732;56.314;44.068;2024-03-23T11:55:12;15.10;;;6.90;;
76035;SDS011;64732;56.314;44.068;2024-03-23T11:57:33;14.27;;;6.32;;
76035;SDS011;64732;56.314;44.068;2024-03-23T11:59:54;13.70;;;6.57;;
76035;SDS011;64732;56.314;44.068;2024-03-23T12:02:17;13.45;;;6.80;;
76035;SDS011;64732;56.314;44.068;2024-03-23T12:04:39;12.77;;;5.57;;
76035;SDS011;64732;56.314;44.068;2024-03-23T12:07:09;15.10;;;7.07;;
76035;SDS011;64732;56.314;44.068;2024-03-23T12:11:50;16.67;;;8.05;;
76035;SDS011;64732;56.314;44.068;2024-03-23T12:14:14;12.85;;;6.22;;
76035;SDS011;64732;56.314;44.068;2024-03-23T12:16:34;26.23;;;8.95;;
76035;SDS011;64732;56.314;44.068;2024-03-23T12:18:58;20.70;;;8.63;;
76035;SDS011;64732;56.314;44.068;2024-03-23T12:21:25;20.43;;;9.27;;
76035;SDS011;64732;56.314;44.068;2024-03-23T12:23:46;17.80;;;9.50;;
76035;SDS011;64732;56.314;44.068;2024-03-23T12:26:06;24.98;;;8.15;;
76035;SDS011;64732;56.314;44.068;2024-03-23T12:28:27;18.33;;;9.15;;
76035;SDS011;64732;56.314;44.068;2024-03-23T12:30:48;18.50;;;8.57;;
76035;SDS011;64732;56.314;44.068;2024-03-23T12:33:09;17.92;;;8.85;;
76035;SDS011;64732;56.314;44.068;2024-03-23T12:35:33;16.88;;;9.35;;
76035;SDS011;64732;56.314;44.068;2024-03-23T12:37:53;16.80;;;9.18;;
76035;SDS011;64732;56.314;44.068;2024-03-23T12:40:14;17.20;;;8.43;;
76035;SDS011;64732;56.314;44.068;2024-03-23T12:42:35;20.35;;;9.30;;
76035;SDS011;64732;56.314;44.068;2024-03-23T12:44:56;18.23;;;7.95;;
76035;SDS011;64732;56.314;44.068;2024-03-23T12:47:16;16.73;;;8.63;;
76035;SDS011;64732;56.314;44.068;2024-03-23T12:49:37;25.42;;;11.23;;
76035;SDS011;64732;56.314;44.068;2024-03-23T12:52:00;19.52;;;9.20;;
76035;SDS011;64732;56.314;44.068;2024-03-23T12:54:21;22.90;;;9.70;;
76035;SDS011;64732;56.314;44.068;2024-03-23T12:56:42;24.70;;;9.30;;
76035;SDS011;64732;56.314;44.068;2024-03-23T12:59:03;27.67;;;11.40;;
76035;SDS011;64732;56.314;44.068;2024-03-23T13:01:23;20.77;;;9.98;;
76035;SDS011;64732;56.314;44.068;2024-03-23T13:03:46;20.70;;;10.95;;
76035;SDS011;64732;56.314;44.068;2024-03-23T13:06:06;17.90;;;9.18;;
76035;SDS011;64732;56.314;44.068;2024-03-23T13:08:30;22.80;;;10.82;;
76035;SDS011;64732;56.314;44.068;2024-03-23T13:10:51;23.55;;;11.63;;
76035;SDS011;64732;56.314;44.068;2024-03-23T13:13:12;20.25;;;9.45;;
76035;SDS011;64732;56.314;44.068;2024-03-23T13:15:32;20.42;;;9.68;;
76035;SDS011;64732;56.314;44.068;2024-03-23T13:17:53;30.98;;;11.15;;
76035;SDS011;64732;56.314;44.068;2024-03-23T13:20:14;27.73;;;11.60;;
76035;SDS011;64732;56.314;44.068;2024-03-23T13:22:35;25.95;;;12.35;;
76035;SDS011;64732;56.314;44.068;2024-03-23T13:24:58;21.98;;;10.25;;
76035;SDS011;64732;56.314;44.068;2024-03-23T13:27:19;25.75;;;11.85;;
76035;SDS011;64732;56.314;44.068;2024-03-23T13:29:39;29.08;;;13.52;;
76035;SDS011;64732;56.314;44.068;2024-03-23T13:32:00;31.58;;;14.13;;
76035;SDS011;64732;56.314;44.068;2024-03-23T13:34:21;33.75;;;13.13;;
76035;SDS011;64732;56.314;44.068;2024-03-23T13:36:41;27.63;;;12.05;;
76035;SDS011;64732;56.314;44.068;2024-03-23T13:39:02;26.42;;;11.02;;
76035;SDS011;64732;56.314;44.068;2024-03-23T13:41:25;36.85;;;16.35;;
76035;SDS011;64732;56.314;44.068;2024-03-23T13:43:46;36.50;;;15.82;;
76035;SDS011;64732;56.314;44.068;2024-03-23T13:46:07;30.05;;;13.52;;
76035;SDS011;64732;56.314;44.068;2024-03-23T13:48:27;25.30;;;11.15;;
76035;SDS011;64732;56.314;44.068;2024-03-23T13:50:56;26.70;;;12.57;;
76035;SDS011;64732;56.314;44.068;2024-03-23T13:53:17;30.27;;;13.95;;
76035;SDS011;64732;56.314;44.068;2024-03-23T13:55:37;32.50;;;13.90;;
76035;SDS011;64732;56.314;44.068;2024-03-23T13:58:01;39.03;;;15.20;;
76035;SDS011;64732;56.314;44.068;2024-03-23T14:00:21;35.55;;;15.63;;
76035;SDS011;64732;56.314;44.068;2024-03-23T14:02:42;31.90;;;13.32;;
76035;SDS011;64732;56.314;44.068;2024-03-23T14:05:03;32.75;;;14.88;;
76035;SDS011;64732;56.314;44.068;2024-03-23T14:07:25;40.20;;;15.00;;
76035;SDS011;64732;56.314;44.068;2024-03-23T14:09:46;37.88;;;14.18;;
76035;SDS011;64732;56.314;44.068;2024-03-23T14:12:07;38.42;;;14.73;;
76035;SDS011;64732;56.314;44.068;2024-03-23T14:14:30;37.47;;;14.45;;
76035;SDS011;64732;56.314;44.068;2024-03-23T14:16:51;34.95;;;15.68;;
76035;SDS011;64732;56.314;44.068;2024-03-23T14:19:11;36.90;;;17.67;;
76035;SDS011;64732;56.314;44.068;2024-03-23T14:21:32;34.83;;;15.65;;
76035;SDS011;64732;56.314;44.068;2024-03-23T14:23:53;32.22;;;14.85;;
76035;SDS011;64732;56.314;44.068;2024-03-23T14:26:15;32.05;;;13.82;;
76035;SDS011;64732;56.314;44.068;2024-03-23T14:28:36;35.88;;;14.52;;
76035;SDS011;64732;56.314;44.068;2024-03-23T14:30:59;34.60;;;13.73;;
76035;SDS011;64732;56.314;44.068;2024-03-23T14:33:20;30.40;;;12.63;;
76035;SDS011;64732;56.314;44.068;2024-03-23T14:35:43;36.38;;;16.25;;
76035;SDS011;64732;56.314;44.068;2024-03-23T14:38:04;31.13;;;14.57;;
76035;SDS011;64732;56.314;44.068;2024-03-23T14:40:24;29.10;;;11.70;;
76035;SDS011;64732;56.314;44.068;2024-03-23T14:42:45;36.72;;;16.08;;
76035;SDS011;64732;56.314;44.068;2024-03-23T14:45:06;32.97;;;13.60;;
76035;SDS011;64732;56.314;44.068;2024-03-23T14:47:30;42.92;;;18.05;;
76035;SDS011;64732;56.314;44.068;2024-03-23T14:49:51;41.80;;;17.70;;